createdAt,value
2023-10-29T00:03:01.678Z,98402.63
2023-10-29T00:06:06.144Z,98404.31
2023-10-29T00:09:08.980Z,98408.31
2023-10-29T00:12:11.761Z,98416.81
2023-10-29T00:15:14.592Z,98414.66
2023-10-29T00:18:18.857Z,98421.47
2023-10-29T00:21:23.035Z,98434.16
2023-10-29T00:24:25.886Z,98428.19
2023-10-29T00:27:28.687Z,98429.66
2023-10-29T00:30:31.455Z,98435.00
2023-10-29T00:33:34.271Z,98446.03
2023-10-29T00:36:38.507Z,98438.03
2023-10-29T00:39:42.199Z,98442.34
2023-10-29T00:42:45.086Z,98439.88
2023-10-29T00:45:53.909Z,98437.03
2023-10-29T00:48:56.833Z,98432.00
2023-10-29T00:52:01.257Z,98447.88
2023-10-29T00:55:04.206Z,98440.69
2023-10-29T00:58:06.984Z,98447.19
2023-10-29T01:01:09.840Z,98444.34
2023-10-29T01:04:12.659Z,98451.69
2023-10-29T01:07:17.709Z,98452.34
2023-10-29T01:10:20.630Z,98457.31
2023-10-29T01:13:23.472Z,98463.97
2023-10-29T01:16:26.301Z,98456.03
2023-10-29T01:19:29.130Z,98456.84
2023-10-29T01:22:34.120Z,98459.50
2023-10-29T01:25:36.961Z,98473.03
2023-10-29T01:28:39.822Z,98472.03
2023-10-29T01:31:42.697Z,98467.38
2023-10-29T01:34:45.726Z,98471.38
2023-10-29T01:37:51.594Z,98482.69
2023-10-29T01:40:54.482Z,98490.41
2023-10-29T01:43:57.291Z,98489.41
2023-10-29T01:47:00.074Z,98497.41
2023-10-29T01:50:02.875Z,98486.03
2023-10-29T01:53:07.295Z,98505.22
2023-10-29T01:56:10.441Z,98508.56
2023-10-29T01:59:14.415Z,98511.88
2023-10-29T02:02:17.305Z,98511.88
2023-10-29T02:05:20.048Z,98526.41
2023-10-29T02:08:24.261Z,98523.38
2023-10-29T02:11:27.093Z,98525.41
2023-10-29T02:14:31.328Z,98520.06
2023-10-29T02:17:34.386Z,98526.22
2023-10-29T02:20:37.328Z,98531.75
2023-10-29T02:23:41.554Z,98532.75
2023-10-29T02:26:44.420Z,98528.56
2023-10-29T02:29:47.321Z,98545.09
2023-10-29T02:32:50.189Z,98540.09
2023-10-29T02:35:53.096Z,98545.09
2023-10-29T02:38:59.217Z,98549.75
2023-10-29T02:42:02.092Z,98550.78
2023-10-29T02:45:05.460Z,98555.75
2023-10-29T02:48:08.372Z,98554.91
2023-10-29T02:51:13.254Z,98561.44
2023-10-29T02:54:17.519Z,98574.09
2023-10-29T02:57:20.343Z,98584.44
2023-10-29T03:00:23.118Z,98569.59
2023-10-29T03:03:26.049Z,98572.44
2023-10-29T03:06:29.869Z,98576.94
2023-10-29T03:09:34.092Z,98567.91
2023-10-29T03:12:36.956Z,98584.09
2023-10-29T03:15:39.836Z,98591.25
2023-10-29T03:18:42.664Z,98585.06
2023-10-29T03:21:45.483Z,98583.72
2023-10-29T03:24:50.056Z,98589.56
2023-10-29T03:27:53.239Z,98596.75
2023-10-29T03:30:56.444Z,98603.75
2023-10-29T03:33:59.181Z,98606.41
2023-10-29T03:37:02.050Z,98615.41
2023-10-29T03:40:07.490Z,98626.41
2023-10-29T03:43:10.440Z,98630.91
2023-10-29T03:46:13.318Z,98637.06
2023-10-29T03:49:16.931Z,98641.38
2023-10-29T03:52:20.780Z,98644.06
2023-10-29T03:55:25.289Z,98653.75
2023-10-29T03:58:28.162Z,98646.06
2023-10-29T04:01:30.997Z,98649.41
2023-10-29T04:04:34.580Z,98650.56
2023-10-29T04:07:38.724Z,98658.56
2023-10-29T04:10:43.010Z,98670.06
2023-10-29T04:13:46.405Z,98672.72
2023-10-29T04:16:49.210Z,98678.41
2023-10-29T04:19:52.194Z,98688.72
2023-10-29T04:22:54.988Z,98689.75
2023-10-29T04:25:59.183Z,98694.56
2023-10-29T04:29:02.002Z,98695.41
2023-10-29T04:32:04.938Z,98706.09
2023-10-29T04:35:08.068Z,98706.41
2023-10-29T04:38:10.860Z,98723.06
2023-10-29T04:41:15.042Z,98731.75
2023-10-29T04:44:17.884Z,98731.22
2023-10-29T04:47:20.717Z,98738.09
2023-10-29T04:50:23.842Z,98744.91
2023-10-29T04:53:27.782Z,98745.22
2023-10-29T04:56:32.085Z,98749.72
2023-10-29T04:59:37.913Z,98750.56
2023-10-29T05:02:40.789Z,98754.38
2023-10-29T05:05:43.684Z,98761.38
2023-10-29T05:08:46.539Z,98769.38
2023-10-29T05:11:51.038Z,98765.88
2023-10-29T05:14:53.935Z,98780.38
2023-10-29T05:17:57.002Z,98788.88
2023-10-29T05:21:02.378Z,98788.56
2023-10-29T05:24:06.169Z,98790.06
2023-10-29T05:27:10.626Z,98792.88
2023-10-29T05:30:13.721Z,98795.69
2023-10-29T05:33:16.658Z,98794.38
2023-10-29T05:36:19.480Z,98801.56
2023-10-29T05:39:22.248Z,98802.03
2023-10-29T05:42:26.614Z,98803.69
2023-10-29T05:45:29.549Z,98809.72
2023-10-29T05:48:32.422Z,98802.38
2023-10-29T05:51:35.324Z,98809.19
2023-10-29T05:54:38.143Z,98810.19
2023-10-29T05:57:42.309Z,98815.22
2023-10-29T06:00:45.220Z,98813.53
2023-10-29T06:03:48.219Z,98809.38
2023-10-29T06:06:51.181Z,98811.03
2023-10-29T06:09:53.983Z,98813.69
2023-10-29T06:12:59.438Z,98818.84
2023-10-29T06:16:02.260Z,98812.03
2023-10-29T06:19:05.052Z,98822.53
2023-10-29T06:22:09.188Z,98826.19
2023-10-29T06:25:12.030Z,98832.34
2023-10-29T06:28:16.236Z,98844.84
2023-10-29T06:31:19.182Z,98834.38
2023-10-29T06:34:23.651Z,98849.03
2023-10-29T06:37:26.487Z,98846.69
2023-10-29T06:40:29.278Z,98836.84
2023-10-29T06:43:33.594Z,98844.03
2023-10-29T06:46:36.422Z,98839.53
2023-10-29T06:49:39.273Z,98833.53
2023-10-29T06:52:42.415Z,98841.03
2023-10-29T06:55:45.338Z,98840.19
2023-10-29T06:58:49.726Z,98838.69
2023-10-29T07:01:53.527Z,98853.69
2023-10-29T07:04:56.578Z,98863.34
2023-10-29T07:08:00.284Z,98863.53
2023-10-29T07:11:03.628Z,98865.19
2023-10-29T07:14:07.925Z,98869.69
2023-10-29T07:17:10.700Z,98868.84
2023-10-29T07:20:14.679Z,98871.34
2023-10-29T07:23:17.501Z,98887.50
2023-10-29T07:26:20.301Z,98907.19
2023-10-29T07:29:24.541Z,98902.34
2023-10-29T07:32:27.490Z,98909.50
2023-10-29T07:35:30.354Z,98910.69
2023-10-29T07:38:33.220Z,98915.19
2023-10-29T07:41:36.141Z,98909.50
2023-10-29T07:44:40.310Z,98914.19
2023-10-29T07:47:43.237Z,98923.34
2023-10-29T07:50:50.884Z,98934.84
2023-10-29T07:53:53.820Z,98939.34
2023-10-29T07:56:56.665Z,98960.66
2023-10-29T08:00:01.143Z,98962.34
2023-10-29T08:03:04.026Z,98969.00
2023-10-29T08:06:07.059Z,98974.66
2023-10-29T08:09:10.303Z,98990.50
2023-10-29T08:12:14.162Z,98982.66
2023-10-29T08:15:18.540Z,98995.16
2023-10-29T08:18:21.611Z,98997.00
2023-10-29T08:21:24.443Z,99006.34
2023-10-29T08:24:27.307Z,99003.00
2023-10-29T08:27:30.370Z,99011.84
2023-10-29T08:30:34.698Z,99010.16
2023-10-29T08:33:37.631Z,99017.31
2023-10-29T08:36:40.533Z,99020.66
2023-10-29T08:39:43.284Z,99017.16
2023-10-29T08:42:46.220Z,99016.16
2023-10-29T08:45:50.520Z,99026.84
2023-10-29T08:48:53.511Z,99026.16
2023-10-29T08:51:56.328Z,99039.34
2023-10-29T08:54:59.144Z,99038.34
2023-10-29T08:58:02.065Z,99032.16
2023-10-29T09:01:11.273Z,99031.34
2023-10-29T09:04:14.149Z,99044.00
2023-10-29T09:07:18.302Z,99044.38
2023-10-29T09:10:21.148Z,99045.50
2023-10-29T09:13:25.296Z,99049.00
2023-10-29T09:16:29.555Z,99061.38
2023-10-29T09:19:32.634Z,99067.53
2023-10-29T09:22:35.461Z,99065.16
2023-10-29T09:25:38.273Z,99065.88
2023-10-29T09:28:41.038Z,99074.69
2023-10-29T09:31:45.358Z,99073.69
2023-10-29T09:34:48.331Z,99090.69
2023-10-29T09:37:51.324Z,99085.03
2023-10-29T09:40:56.744Z,99090.00
2023-10-29T09:44:00.744Z,99098.69
2023-10-29T09:47:13.062Z,99097.88
2023-10-29T09:50:16.444Z,99105.00
2023-10-29T09:53:19.963Z,99101.38
2023-10-29T09:56:22.907Z,99110.31
2023-10-29T09:59:25.710Z,99106.00
2023-10-29T10:02:30.449Z,99117.38
2023-10-29T10:05:34.258Z,99113.00
2023-10-29T10:08:37.103Z,99114.81
2023-10-29T10:11:39.932Z,99114.00
2023-10-29T10:14:42.798Z,99118.31
2023-10-29T10:17:50.959Z,99119.19
2023-10-29T10:20:59.191Z,99118.31
2023-10-29T10:24:02.073Z,99127.19
2023-10-29T10:27:05.129Z,99133.03
2023-10-29T10:30:24.924Z,99135.69
2023-10-29T10:33:30.253Z,99140.66
2023-10-29T10:36:33.705Z,99136.03
2023-10-29T10:39:36.576Z,99134.50
2023-10-29T10:42:39.455Z,99137.00
2023-10-29T10:45:43.046Z,99140.19
2023-10-29T10:48:47.424Z,99124.19
2023-10-29T10:51:51.256Z,99123.22
2023-10-29T10:54:54.698Z,99124.38
2023-10-29T10:57:58.073Z,99132.38
2023-10-29T11:01:00.979Z,99131.38
2023-10-29T11:04:06.021Z,99139.53
2023-10-29T11:07:08.941Z,99136.03
2023-10-29T11:10:14.641Z,99133.38
2023-10-29T11:13:21.381Z,99141.03
2023-10-29T11:16:26.306Z,99133.72
2023-10-29T11:19:43.763Z,99132.88
2023-10-29T11:22:49.334Z,99134.19
2023-10-29T11:25:52.547Z,99140.19
2023-10-29T11:28:56.368Z,99147.22
2023-10-29T11:32:25.015Z,99148.88
2023-10-29T11:35:30.497Z,99144.25
2023-10-29T11:38:35.612Z,99165.44
2023-10-29T11:41:41.331Z,99165.44
2023-10-29T11:44:45.513Z,99170.22
2023-10-29T11:48:03.639Z,99171.75
2023-10-29T11:51:20.741Z,99183.25
2023-10-29T11:54:23.655Z,99185.09
2023-10-29T11:57:26.947Z,99185.09
2023-10-29T12:00:38.298Z,99184.75
2023-10-29T12:03:41.258Z,99197.25
2023-10-29T12:06:46.609Z,99196.59
2023-10-29T12:09:49.668Z,99200.31
2023-10-29T12:12:55.825Z,99202.84
2023-10-29T12:15:59.514Z,99207.19
2023-10-29T12:19:03.573Z,99205.53
2023-10-29T12:22:15.789Z,99218.00
2023-10-29T12:25:19.790Z,99206.19
2023-10-29T12:28:23.348Z,99212.38
2023-10-29T12:31:29.332Z,99216.59
2023-10-29T12:34:47.055Z,99219.75
2023-10-29T12:37:54.147Z,99215.25
2023-10-29T12:41:12.483Z,99224.25
2023-10-29T12:44:17.319Z,99220.25
2023-10-29T12:47:20.216Z,99227.59
2023-10-29T12:50:23.082Z,99231.44
2023-10-29T12:53:28.369Z,99237.75
2023-10-29T12:56:31.233Z,99233.25
2023-10-29T12:59:35.065Z,99237.59
2023-10-29T13:02:37.988Z,99246.59
2023-10-29T13:05:41.025Z,99245.75
2023-10-29T13:08:47.531Z,99255.59
2023-10-29T13:11:53.012Z,99250.53
2023-10-29T13:14:56.694Z,99260.25
2023-10-29T13:18:01.053Z,99255.88
2023-10-29T13:21:04.272Z,99253.66
2023-10-29T13:24:09.521Z,99259.72
2023-10-29T13:27:12.472Z,99261.81
2023-10-29T13:30:15.728Z,99262.66
2023-10-29T13:33:18.651Z,99257.31
2023-10-29T13:36:23.813Z,99267.00
2023-10-29T13:39:28.042Z,99261.13
2023-10-29T13:42:31.094Z,99270.13
2023-10-29T13:45:34.003Z,99277.13
2023-10-29T13:48:36.936Z,99286.44
2023-10-29T13:51:40.660Z,99288.94
2023-10-29T13:54:44.923Z,99279.25
2023-10-29T13:57:48.505Z,99289.22
2023-10-29T14:00:51.394Z,99290.22
2023-10-29T14:03:57.066Z,99300.03
2023-10-29T14:07:00.391Z,99296.38
2023-10-29T14:10:04.939Z,99292.03
2023-10-29T14:13:07.814Z,99294.72
2023-10-29T14:16:10.890Z,99312.53
2023-10-29T14:19:13.694Z,99312.25
2023-10-29T14:22:16.596Z,99315.06
2023-10-29T14:25:20.974Z,99316.59
2023-10-29T14:28:23.828Z,99318.44
2023-10-29T14:31:26.780Z,99315.34
2023-10-29T14:34:29.612Z,99320.63
2023-10-29T14:37:32.509Z,99322.97
2023-10-29T14:40:37.380Z,99330.03
2023-10-29T14:43:40.216Z,99340.13
2023-10-29T14:46:43.289Z,99339.75
2023-10-29T14:49:46.536Z,99337.69
2023-10-29T14:52:49.413Z,99341.88
2023-10-29T14:55:53.651Z,99354.72
2023-10-29T14:58:56.789Z,99347.72
2023-10-29T15:01:59.818Z,99350.38
2023-10-29T15:05:02.808Z,99359.63
2023-10-29T15:08:06.058Z,99365.97
2023-10-29T15:11:12.273Z,99375.16
2023-10-29T15:14:15.252Z,99369.53
2023-10-29T15:17:19.288Z,99372.03
2023-10-29T15:20:22.399Z,99375.44
2023-10-29T15:23:25.219Z,99376.94
2023-10-29T15:26:29.419Z,99372.25
2023-10-29T15:29:32.230Z,99380.66
2023-10-29T15:32:35.075Z,99386.50
2023-10-29T15:35:38.076Z,99385.03
2023-10-29T15:38:41.117Z,99392.06
2023-10-29T15:41:45.542Z,99390.34
2023-10-29T15:44:48.554Z,99399.81
2023-10-29T15:47:51.557Z,99396.53
2023-10-29T15:50:54.920Z,99395.81
2023-10-29T15:53:57.757Z,99401.88
2023-10-29T15:57:02.019Z,99397.03
2023-10-29T16:00:06.318Z,99407.56
2023-10-29T16:03:09.523Z,99401.75
2023-10-29T16:06:12.663Z,99414.78
2023-10-29T16:09:16.823Z,99406.63
2023-10-29T16:12:21.193Z,99409.63
2023-10-29T16:15:24.080Z,99411.63
2023-10-29T16:18:26.912Z,99402.31
2023-10-29T16:21:29.764Z,99413.50
2023-10-29T16:24:33.616Z,99410.66
2023-10-29T16:27:38.037Z,99419.09
2023-10-29T16:30:41.623Z,99411.25
2023-10-29T16:33:45.014Z,99407.13
2023-10-29T16:36:47.892Z,99409.44
2023-10-29T16:39:50.653Z,99406.75
2023-10-29T16:42:56.281Z,99406.44
2023-10-29T16:45:59.204Z,99425.84
2023-10-29T16:49:03.134Z,99419.50
2023-10-29T16:52:06.295Z,99425.84
2023-10-29T16:55:09.225Z,99421.53
2023-10-29T16:58:13.460Z,99419.47
2023-10-29T17:01:16.346Z,99412.63
2023-10-29T17:04:19.344Z,99408.50
2023-10-29T17:07:23.051Z,99407.97
2023-10-29T17:10:26.156Z,99410.50
2023-10-29T17:13:30.651Z,99411.19
2023-10-29T17:16:33.638Z,99419.88
2023-10-29T17:19:36.745Z,99423.31
2023-10-29T17:22:39.611Z,99434.31
2023-10-29T17:25:42.657Z,99443.00
2023-10-29T17:28:47.588Z,99443.16
2023-10-29T17:31:51.280Z,99446.50
2023-10-29T17:34:54.295Z,99450.72
2023-10-29T17:37:57.223Z,99459.75
2023-10-29T17:41:00.284Z,99442.34
2023-10-29T17:44:07.281Z,99458.56
2023-10-29T17:47:10.795Z,99462.75
2023-10-29T17:50:14.861Z,99474.00
2023-10-29T17:53:18.747Z,99470.31
2023-10-29T17:56:22.680Z,99478.34
2023-10-29T17:59:27.670Z,99489.53
2023-10-29T18:02:31.471Z,99483.34
2023-10-29T18:05:35.626Z,99494.91
2023-10-29T18:08:39.635Z,99500.63
2023-10-29T18:11:43.477Z,99505.97
2023-10-29T18:14:49.635Z,99517.84
2023-10-29T18:17:53.960Z,99514.50
2023-10-29T18:20:57.669Z,99513.84
2023-10-29T18:24:04.301Z,99515.28
2023-10-29T18:27:08.192Z,99524.19
2023-10-29T18:30:14.471Z,99521.13
2023-10-29T18:33:19.468Z,99523.06
2023-10-29T18:36:27.662Z,99534.78
2023-10-29T18:39:31.388Z,99543.81
2023-10-29T18:42:35.900Z,99550.34
2023-10-29T18:45:43.068Z,99565.56
2023-10-29T18:48:46.777Z,99567.03
2023-10-29T18:51:49.893Z,99579.72
2023-10-29T18:54:53.233Z,99585.06
2023-10-29T18:57:56.228Z,99579.34
2023-10-29T19:01:12.814Z,99576.84
2023-10-29T19:04:16.566Z,99593.19
2023-10-29T19:07:19.898Z,99591.84
2023-10-29T19:10:23.767Z,99596.47
2023-10-29T19:13:26.746Z,99599.47
2023-10-29T19:16:31.433Z,99612.53
2023-10-29T19:19:34.482Z,99612.16
2023-10-29T19:22:37.615Z,99619.28
2023-10-29T19:25:40.506Z,99617.63
2023-10-29T19:28:43.393Z,99618.78
2023-10-29T19:31:47.677Z,99622.28
2023-10-29T19:34:50.603Z,99636.00
2023-10-29T19:37:53.414Z,99643.63
2023-10-29T19:40:59.666Z,99646.28
2023-10-29T19:44:05.498Z,99652.94
2023-10-29T19:47:10.566Z,99655.25
2023-10-29T19:50:15.303Z,99645.50
2023-10-29T19:53:19.871Z,99650.56
2023-10-29T19:56:22.760Z,99648.59
2023-10-29T19:59:25.914Z,99642.84
2023-10-29T20:02:30.215Z,99642.84
2023-10-29T20:05:37.097Z,99643.16
2023-10-29T20:08:40.757Z,99647.97
2023-10-29T20:11:43.510Z,99653.63
2023-10-29T20:14:47.821Z,99664.31
2023-10-29T20:17:52.012Z,99650.28
2023-10-29T20:20:54.942Z,99662.94
2023-10-29T20:23:57.806Z,99664.91
2023-10-29T20:27:00.866Z,99657.06
2023-10-29T20:30:03.920Z,99653.53
2023-10-29T20:33:08.252Z,99654.00
2023-10-29T20:36:11.588Z,99654.00
2023-10-29T20:39:14.501Z,99659.50
2023-10-29T20:42:17.483Z,99657.66
2023-10-29T20:45:20.414Z,99658.81
2023-10-29T20:48:24.715Z,99644.75
2023-10-29T20:51:27.595Z,99648.25
2023-10-29T20:54:30.591Z,99636.88
2023-10-29T20:57:33.550Z,99642.38
2023-10-29T21:00:36.794Z,99652.22
2023-10-29T21:03:41.218Z,99650.69
2023-10-29T21:06:44.318Z,99658.97
2023-10-29T21:09:47.451Z,99660.56
2023-10-29T21:12:51.529Z,99670.09
2023-10-29T21:15:55.789Z,99682.88
2023-10-29T21:19:00.652Z,99694.56
2023-10-29T21:22:03.611Z,99697.78
2023-10-29T21:25:06.623Z,99709.25
2023-10-29T21:28:09.541Z,99709.97
2023-10-29T21:31:13.158Z,99709.41
2023-10-29T21:34:17.347Z,99718.75
2023-10-29T21:37:20.138Z,99730.75
2023-10-29T21:40:22.998Z,99726.56
2023-10-29T21:43:25.834Z,99727.03
2023-10-29T21:46:28.683Z,99728.88
2023-10-29T21:49:35.124Z,99723.59
2023-10-29T21:52:40.618Z,99725.59
2023-10-29T21:55:43.506Z,99726.50
2023-10-29T21:58:46.316Z,99731.13
2023-10-29T22:01:53.823Z,99727.00
2023-10-29T22:04:58.106Z,99725.50
2023-10-29T22:08:00.896Z,99725.03
2023-10-29T22:11:04.431Z,99728.41
2023-10-29T22:14:09.647Z,99735.56
2023-10-29T22:17:14.912Z,99736.38
2023-10-29T22:20:19.188Z,99746.13
2023-10-29T22:23:22.076Z,99748.81
2023-10-29T22:26:24.886Z,99747.25
2023-10-29T22:29:27.640Z,99754.22
2023-10-29T22:32:30.495Z,99744.19
2023-10-29T22:35:35.773Z,99742.38
2023-10-29T22:38:39.023Z,99736.50
2023-10-29T22:41:41.914Z,99737.78
2023-10-29T22:44:44.773Z,99734.25
2023-10-29T22:47:48.723Z,99734.59
2023-10-29T22:50:52.976Z,99729.56
2023-10-29T22:53:55.794Z,99737.72
2023-10-29T22:56:58.574Z,99729.84
2023-10-29T23:00:01.384Z,99742.00
2023-10-29T23:03:05.228Z,99744.16
2023-10-29T23:06:09.640Z,99747.13
2023-10-29T23:09:13.270Z,99750.50
2023-10-29T23:12:16.189Z,99754.09
2023-10-29T23:15:19.250Z,99749.94
2023-10-29T23:18:22.155Z,99748.59
2023-10-29T23:21:26.844Z,99750.69
2023-10-29T23:24:29.831Z,99746.59
2023-10-29T23:27:32.776Z,99753.78
2023-10-29T23:30:35.779Z,99751.13
2023-10-29T23:33:38.765Z,99765.66
2023-10-29T23:36:43.074Z,99767.47
2023-10-29T23:39:46.032Z,99770.31
2023-10-29T23:42:48.825Z,99773.44
2023-10-29T23:45:52.111Z,99769.22
2023-10-29T23:48:54.965Z,99769.34
2023-10-29T23:51:59.121Z,99767.00
2023-10-29T23:55:02.079Z,99776.84
2023-10-29T23:58:04.983Z,99765.84
